METAR Data
IDs: Format: Raw Decoded Include TAF

Data at: 2124 UTC 24 Mar 2019

KARM 242115Z AUTO 16009KT 10SM SCT036 BKN048 OVC050 26/17 A3006 RMK AO2 T02550171
KARM 242055Z AUTO 17009KT 10SM SCT031 BKN040 OVC050 25/17 A3006 RMK AO2 T02540171
KARM 242035Z AUTO 17006KT 10SM SCT029 SCT033 OVC050 26/17 A3006 RMK AO2 T02550171
KARM 242015Z AUTO 18009KT 10SM SCT035 SCT046 OVC050 26/17 A3006 RMK AO2 T02550169
KARM 241955Z AUTO 17010KT 10SM SCT031 SCT037 OVC050 25/17 A3006 RMK AO2 T02530170
KARM 241935Z AUTO 17009G15KT 10SM BKN027 BKN035 OVC050 26/17 A3007 RMK AO2 T02570170
KARM 241915Z AUTO 17009KT 10SM BKN027 BKN037 OVC050 25/17 A3008 RMK AO2 T02520170
KARM 241855Z AUTO 18009KT 10SM SCT027 BKN036 OVC050 25/17 A3009 RMK AO2 T02510169
KARM 241835Z AUTO 18011KT 10SM SCT029 SCT036 OVC050 26/17 A3009 RMK AO2 T02560165
KARM 241815Z AUTO 18012KT 10SM SCT031 SCT038 OVC050 25/17 A3010 RMK AO2 T02510166
KARM 241755Z AUTO 17010KT 10SM BKN031 BKN038 OVC050 25/16 A3011 RMK AO2 T02530163 10260 20155
KARM 241735Z AUTO 18009G15KT 10SM BKN031 BKN038 OVC050 26/16 A3011 RMK AO2 T02550160
KARM 241715Z AUTO 17010KT 10SM BKN031 BKN041 26/16 A3011 RMK AO2 T02560160
KARM 241655Z AUTO 18009KT 10SM BKN027 BKN036 OVC045 26/17 A3012 RMK AO2 T02550165
KARM 241635Z AUTO 17011KT 10SM BKN022 BKN027 OVC035 25/17 A3013 RMK AO2 T02500170
KARM 241615Z AUTO 17009KT 10SM BKN018 BKN024 OVC037 24/18 A3014 RMK AO2 T02380175
KARM 241555Z AUTO 18008KT 10SM OVC016 23/18 A3014 RMK AO2 T02300179
KARM 241535Z AUTO 16007KT 10SM BKN016 OVC020 23/18 A3014 RMK AO2 T02250180
KARM 241515Z AUTO 15006KT 10SM BKN013 OVC019 22/18 A3013 RMK AO2 T02150180
KARM 241455Z AUTO 15006KT 10SM BKN008 OVC019 21/18 A3013 RMK AO2 T02090182
KARM 241435Z AUTO 14005KT 7SM SCT006 BKN021 OVC028 19/18 A3012 RMK AO2 T01940181
KARM 241415Z AUTO 13004KT 7SM SCT005 OVC021 18/18 A3012 RMK AO2 T01820177
KARM 241355Z AUTO 12004KT 5SM BR OVC021 18/17 A3011 RMK AO2 T01750170
KARM 241335Z AUTO 10003KT 4SM BR BKN021 17/17 A3011 RMK AO2 T01690165
KARM 241315Z AUTO 00000KT 3SM BR SCT021 16/16 A3011 RMK AO2 T01610156
KARM 241255Z AUTO 00000KT 2SM BR BKN009 OVC021 16/15 A3011 RMK AO2 T01560151
KARM 241235Z AUTO 00000KT 1 1/4SM BR OVC009 16/15 A3011 RMK AO2 T01560150
KARM 241215Z AUTO 00000KT 2SM BR BKN009 OVC015 16/15 A3011 RMK AO2 T01570151
KARM 241155Z AUTO 00000KT 4SM BR OVC009 16/15 A3010 RMK AO2 T01600154 10165 20145
KARM 241135Z AUTO 00000KT 5SM BR OVC009 17/16 A3009 RMK AO2 T01650158
KARM 241115Z AUTO 00000KT 7SM OVC011 16/16 A3009 RMK AO2 T01630157
KARM 241055Z AUTO 00000KT 7SM BKN011 BKN037 OVC065 16/16 A3009 RMK AO2 T01610155
KARM 241035Z AUTO 00000KT 7SM SCT037 OVC065 16/15 A3008 RMK AO2 T01580152
KARM 241015Z AUTO 00000KT 5SM BR SCT012 OVC065 15/15 A3008 RMK AO2 T01540148
KARM 240955Z AUTO 00000KT 7SM BKN012 OVC065 15/14 A3008 RMK AO2 T01480142
KARM 240935Z AUTO 00000KT 5SM BR SCT014 BKN065 15/14 A3008 RMK AO2 T01450137
KARM 240915Z AUTO 11003KT 5SM BR SCT065 15/14 A3008 RMK AO2 T01480141
KARM 240855Z AUTO 00000KT 5SM BR SCT065 15/14 A3008 RMK AO2 T01500141
KARM 240835Z AUTO 00000KT 7SM CLR 15/14 A3009 RMK AO2 T01510143
KARM 240815Z AUTO 00000KT 7SM CLR 15/14 A3009 RMK AO2 T01520143
KARM 240755Z AUTO 00000KT 10SM CLR 15/14 A3009 RMK AO2 T01520142
KARM 240735Z AUTO 00000KT 10SM CLR 16/14 A3009 RMK AO2 T01550143
KARM 240715Z AUTO 00000KT 10SM CLR 16/15 A3009 RMK AO2 T01570145
KARM 240655Z AUTO 00000KT 10SM CLR 16/15 A3009 RMK AO2 T01570145
KARM 240635Z AUTO 13004KT 10SM CLR 16/14 A3009 RMK AO2 T01550142
KARM 240615Z AUTO 00000KT 10SM CLR 16/15 A3010 RMK AO2 T01570145
KARM 240555Z AUTO 13003KT 10SM CLR 15/14 A3010 RMK AO2 T01540139 10210 20152 402450131
KARM 240535Z AUTO 13003KT 10SM CLR 16/14 A3011 RMK AO2 T01600140
KARM 240515Z AUTO 00000KT 10SM CLR 17/15 A3012 RMK AO2 T01650145
KARM 240455Z AUTO 00000KT 10SM CLR 17/15 A3013 RMK AO2 T01660145
KARM 240435Z AUTO 14003KT 10SM CLR 17/15 A3012 RMK AO2 T01650145
KARM 240415Z AUTO 14004KT 10SM CLR 17/15 A3012 RMK AO2 T01700146
KARM 240355Z AUTO 14004KT 10SM CLR 18/15 A3012 RMK AO2 T01750147
KARM 240335Z AUTO 14006KT 10SM CLR 18/15 A3011 RMK AO2 T01760147
KARM 240315Z AUTO 13007KT 10SM CLR 18/15 A3010 RMK AO2 T01780147
KARM 240255Z AUTO 14007KT 10SM CLR 18/15 A3011 RMK AO2 T01800146
KARM 240235Z AUTO 13007KT 10SM SCT030 18/15 A3010 RMK AO2 T01830147
KARM 240215Z AUTO 13007KT 10SM SCT028 19/15 A3009 RMK AO2 T01850147
KARM 240155Z AUTO 13009KT 10SM SCT030 19/15 A3008 RMK AO2 T01850148
KARM 240135Z AUTO 14010KT 10SM CLR 19/15 A3008 RMK AO2 T01870147
KARM 240115Z AUTO 13008KT 10SM CLR 19/15 A3009 RMK AO2 T01910147
KARM 240055Z AUTO 13008KT 10SM SCT090 19/15 A3010 RMK AO2 T01930146
KARM 240035Z AUTO 14008KT 10SM SCT024 BKN090 20/15 A3010 RMK AO2 T02000145
KARM 240015Z AUTO 13011G16KT 10SM SCT026 OVC090 21/14 A3010 RMK AO2 T02050143
KARM 232355Z AUTO 14012KT 10SM SCT028 OVC090 21/15 A3009 RMK AO2 T02110145 10245 20211
KARM 232335Z AUTO 15012KT 10SM SCT045 OVC090 21/14 A3009 RMK AO2 T02140140
KARM 232315Z AUTO 15010KT 10SM BKN043 OVC090 22/14 A3009 RMK AO2 T02220140
KARM 232255Z AUTO 15010KT 10SM OVC043 22/14 A3009 RMK AO2 T02210140
KARM 232235Z AUTO 15009KT 10SM SCT030 OVC045 22/14 A3009 RMK AO2 T02200141
KARM 232215Z AUTO 15011KT 10SM SCT032 OVC045 22/14 A3009 RMK AO2 T02240137
KARM 232155Z AUTO 14010KT 10SM BKN032 OVC043 23/14 A3009 RMK AO2 T02250140
KARM 232135Z AUTO 14011KT 10SM BKN034 OVC045 23/14 A3008 RMK AO2 T02300139
KARM 232115Z AUTO 14010KT 10SM SCT036 BKN043 BKN095 24/13 A3008 RMK AO2 T02380133
KARM 232055Z AUTO 14010G15KT 10SM SCT036 BKN043 OVC095 24/13 A3008 RMK AO2 T02400132
KARM 232035Z AUTO 15010KT 10SM SCT038 BKN046 OVC095 24/13 A3008 RMK AO2 LTG DSNT N T02410134
KARM 232015Z AUTO 15012KT 10SM SCT035 BKN043 OVC095 24/13 A3010 RMK AO2 T02370133
KARM 231955Z AUTO 14011KT 10SM SCT035 BKN043 OVC095 24/13 A3010 RMK AO2 T02400132
KARM 231935Z AUTO 13011KT 10SM SCT033 SCT038 OVC095 24/14 A3010 RMK AO2 T02430140
KARM 231915Z AUTO 13011KT 10SM SCT031 BKN040 BKN090 24/14 A3010 RMK AO2 T02410141
KARM 231855Z AUTO 14011KT 10SM SCT027 BKN040 OVC090 24/14 A3012 RMK AO2 T02350140
KARM 231835Z AUTO 13010KT 10SM BKN027 BKN032 OVC100 23/15 A3013 RMK AO2 T02310146
KARM 231815Z AUTO 14012G15KT 10SM OVC025 23/15 A3014 RMK AO2 T02270149
KARM 231755Z AUTO 13010KT 10SM SCT020 BKN025 OVC080 22/15 A3014 RMK AO2 T02230150 10225 20142
KARM 231735Z AUTO 14009KT 10SM SCT020 BKN075 OVC095 22/16 A3015 RMK AO2 T02180155
KARM 231715Z AUTO 13009KT 10SM OVC075 21/16 A3015 RMK AO2 LTG DSNT N T02090155
KARM 231655Z AUTO 13007KT 10SM OVC075 20/16 A3016 RMK AO2 T02040157
KARM 231635Z AUTO 13006KT 10SM BKN075 OVC100 20/16 A3016 RMK AO2 LTG DSNT N T02010157
KARM 231615Z AUTO 13007KT 10SM OVC075 20/16 A3016 RMK AO2 LTG DSNT N T01950157
KARM 231555Z AUTO 13006KT 10SM OVC075 19/16 A3016 RMK AO2 T01910155
KARM 231535Z AUTO 13006KT 10SM OVC075 19/15 A3016 RMK AO2 T01920154
KARM 231515Z AUTO 13008KT 10SM OVC075 19/15 A3014 RMK AO2 T01910154
KARM 231455Z AUTO 13006KT 10SM OVC075 19/16 A3014 RMK AO2 LTG DSNT N T01880155
KARM 231435Z AUTO 13006KT 10SM OVC075 19/16 A3013 RMK AO2 T01850155
KARM 231415Z AUTO 13005KT 10SM OVC075 17/15 A3013 RMK AO2 T01740152
KARM 231355Z AUTO 13006KT 10SM OVC075 17/15 A3012 RMK AO2 T01680147
KARM 231335Z AUTO 12005KT 10SM OVC075 16/15 A3011 RMK AO2 T01620145
KARM 231315Z AUTO 12003KT 10SM OVC075 16/14 A3011 RMK AO2 T01580143
KARM 231255Z AUTO 11003KT 10SM OVC075 16/14 A3010 RMK AO2 T01550140
KARM 231235Z AUTO 11003KT 10SM OVC075 15/14 A3009 RMK AO2 T01500137
KARM 231215Z AUTO 12003KT 10SM OVC075 15/14 A3009 RMK AO2 T01460135
KARM 231155Z AUTO 11004KT 10SM BKN075 14/13 A3008 RMK AO2 7//// T01410131 10147 20131
KARM 231135Z AUTO 13003KT 10SM CLR 14/13 A3008 RMK AO2 T01410130
KARM 231115Z AUTO 11004KT 10SM CLR 14/13 A3006 RMK AO2 T01410130
KARM 231055Z AUTO 11003KT 10SM CLR 14/13 A3006 RMK AO2 T01410130
KARM 231035Z AUTO 11003KT 10SM CLR 14/13 A3006 RMK AO2 T01400127
KARM 231015Z AUTO 00000KT 10SM SCT075 14/13 A3006 RMK AO2 T01440130
KARM 230955Z AUTO 00000KT 10SM SCT075 15/13 A3006 RMK AO2 T01450130
KARM 230935Z AUTO 11004KT 10SM SCT070 15/14 A3006 RMK AO2 T01460135